Terminal Aerodrome Forecast
Issued by NWS

Home | Current Version | Previous Version | Graphics & Text | Print | Product List | Glossary On
Versions: 1 2 3 4 5 6 7 8 9 10 11 12
000
FTUS45 KGGW 180500
TAFSDY
TAF
KSDY 180520Z 1806/1906 14009KT P6SM FEW015 SCT250
     FM181500 18012KT P6SM BKN120
     FM190000 24007KT P6SM SCT130
      AMD LTD TO CLD VIS AND WIND=

USA.gov is the U.S. government's official web portal to all federal, state and local government web resources and services.